sensor_id;sensor_type;location;lat;lon;timestamp;temperature;humidity
34145;HTU21D;69555;53.014;8.886;2023-12-20T00:01:26;5.63;109.47
34145;HTU21D;69555;53.014;8.886;2023-12-20T00:03:52;5.59;109.29
34145;HTU21D;69555;53.014;8.886;2023-12-20T00:06:19;5.61;109.01
34145;HTU21D;69555;53.014;8.886;2023-12-20T00:08:45;5.38;110.24
34145;HTU21D;69555;53.014;8.886;2023-12-20T00:11:12;5.48;109.93
34145;HTU21D;69555;53.014;8.886;2023-12-20T00:13:38;5.46;109.78
34145;HTU21D;69555;53.014;8.886;2023-12-20T00:16:05;5.47;109.91
34145;HTU21D;69555;53.014;8.886;2023-12-20T00:18:32;5.45;109.50
34145;HTU21D;69555;53.014;8.886;2023-12-20T00:20:58;5.46;109.33
34145;HTU21D;69555;53.014;8.886;2023-12-20T00:23:25;5.56;108.63
34145;HTU21D;69555;53.014;8.886;2023-12-20T00:25:52;5.47;108.56
34145;HTU21D;69555;53.014;8.886;2023-12-20T00:28:18;5.47;108.17
34145;HTU21D;69555;53.014;8.886;2023-12-20T00:30:45;5.46;108.77
34145;HTU21D;69555;53.014;8.886;2023-12-20T00:33:12;5.35;108.92
34145;HTU21D;69555;53.014;8.886;2023-12-20T00:35:39;5.24;109.26
34145;HTU21D;69555;53.014;8.886;2023-12-20T00:38:05;5.30;109.45
34145;HTU21D;69555;53.014;8.886;2023-12-20T00:40:33;5.09;109.91
34145;HTU21D;69555;53.014;8.886;2023-12-20T00:43:00;5.12;109.88
34145;HTU21D;69555;53.014;8.886;2023-12-20T00:45:26;5.09;109.78
34145;HTU21D;69555;53.014;8.886;2023-12-20T00:47:52;5.16;110.05
34145;HTU21D;69555;53.014;8.886;2023-12-20T00:50:20;5.25;109.36
34145;HTU21D;69555;53.014;8.886;2023-12-20T00:52:48;5.09;109.84
34145;HTU21D;69555;53.014;8.886;2023-12-20T00:55:15;5.15;109.93
34145;HTU21D;69555;53.014;8.886;2023-12-20T00:57:41;5.06;109.82
34145;HTU21D;69555;53.014;8.886;2023-12-20T01:00:09;5.02;109.91
34145;HTU21D;69555;53.014;8.886;2023-12-20T01:02:39;5.04;109.94
34145;HTU21D;69555;53.014;8.886;2023-12-20T01:05:06;5.24;108.74
34145;HTU21D;69555;53.014;8.886;2023-12-20T01:07:33;5.13;108.82
34145;HTU21D;69555;53.014;8.886;2023-12-20T01:10:00;5.08;109.23
34145;HTU21D;69555;53.014;8.886;2023-12-20T01:12:27;5.06;109.23
34145;HTU21D;69555;53.014;8.886;2023-12-20T01:14:53;5.08;109.67
34145;HTU21D;69555;53.014;8.886;2023-12-20T01:17:20;5.07;109.64
34145;HTU21D;69555;53.014;8.886;2023-12-20T01:19:47;5.11;109.10
34145;HTU21D;69555;53.014;8.886;2023-12-20T01:22:14;5.09;109.17
34145;HTU21D;69555;53.014;8.886;2023-12-20T01:24:41;5.13;108.75
34145;HTU21D;69555;53.014;8.886;2023-12-20T01:27:07;5.08;109.28
34145;HTU21D;69555;53.014;8.886;2023-12-20T01:29:34;5.03;109.66
34145;HTU21D;69555;53.014;8.886;2023-12-20T01:32:01;5.05;109.82
34145;HTU21D;69555;53.014;8.886;2023-12-20T01:34:27;5.17;109.33
34145;HTU21D;69555;53.014;8.886;2023-12-20T01:36:54;5.25;109.23
34145;HTU21D;69555;53.014;8.886;2023-12-20T01:39:20;5.30;108.89
34145;HTU21D;69555;53.014;8.886;2023-12-20T01:41:47;5.31;108.91
34145;HTU21D;69555;53.014;8.886;2023-12-20T01:44:13;5.43;108.51
34145;HTU21D;69555;53.014;8.886;2023-12-20T01:46:38;5.51;107.78
34145;HTU21D;69555;53.014;8.886;2023-12-20T01:49:06;5.49;107.83
34145;HTU21D;69555;53.014;8.886;2023-12-20T01:51:33;5.47;107.78
34145;HTU21D;69555;53.014;8.886;2023-12-20T01:54:00;5.41;107.67
34145;HTU21D;69555;53.014;8.886;2023-12-20T01:56:28;5.40;107.80
34145;HTU21D;69555;53.014;8.886;2023-12-20T01:58:55;5.36;107.71
34145;HTU21D;69555;53.014;8.886;2023-12-20T02:01:24;5.34;107.71
34145;HTU21D;69555;53.014;8.886;2023-12-20T02:03:51;5.31;107.85
34145;HTU21D;69555;53.014;8.886;2023-12-20T02:06:18;5.19;108.24
34145;HTU21D;69555;53.014;8.886;2023-12-20T02:08:45;5.16;108.32
34145;HTU21D;69555;53.014;8.886;2023-12-20T02:11:11;5.16;108.80
34145;HTU21D;69555;53.014;8.886;2023-12-20T02:13:41;5.05;108.71
34145;HTU21D;69555;53.014;8.886;2023-12-20T02:16:08;5.08;108.43
34145;HTU21D;69555;53.014;8.886;2023-12-20T02:18:34;5.02;108.75
34145;HTU21D;69555;53.014;8.886;2023-12-20T02:21:03;5.01;109.39
34145;HTU21D;69555;53.014;8.886;2023-12-20T02:23:30;4.97;108.90
34145;HTU21D;69555;53.014;8.886;2023-12-20T02:25:57;4.98;109.03
34145;HTU21D;69555;53.014;8.886;2023-12-20T02:28:24;5.02;108.77
34145;HTU21D;69555;53.014;8.886;2023-12-20T02:30:52;4.95;109.30
34145;HTU21D;69555;53.014;8.886;2023-12-20T02:33:18;4.98;108.86
34145;HTU21D;69555;53.014;8.886;2023-12-20T02:35:45;4.95;108.87
34145;HTU21D;69555;53.014;8.886;2023-12-20T02:38:11;4.93;109.23
34145;HTU21D;69555;53.014;8.886;2023-12-20T02:40:38;4.96;109.18
34145;HTU21D;69555;53.014;8.886;2023-12-20T02:43:05;5.00;108.81
34145;HTU21D;69555;53.014;8.886;2023-12-20T02:45:31;5.06;108.62
34145;HTU21D;69555;53.014;8.886;2023-12-20T02:47:57;5.04;108.94
34145;HTU21D;69555;53.014;8.886;2023-12-20T02:50:23;5.13;108.41
34145;HTU21D;69555;53.014;8.886;2023-12-20T02:52:50;5.10;108.78
34145;HTU21D;69555;53.014;8.886;2023-12-20T02:55:16;5.17;108.52
34145;HTU21D;69555;53.014;8.886;2023-12-20T02:57:43;5.15;108.40
34145;HTU21D;69555;53.014;8.886;2023-12-20T03:00:10;5.18;108.30
34145;HTU21D;69555;53.014;8.886;2023-12-20T03:02:37;5.20;108.19
34145;HTU21D;69555;53.014;8.886;2023-12-20T03:05:03;5.18;108.40
34145;HTU21D;69555;53.014;8.886;2023-12-20T03:07:30;5.17;108.46
34145;HTU21D;69555;53.014;8.886;2023-12-20T03:09:59;5.18;108.53
34145;HTU21D;69555;53.014;8.886;2023-12-20T03:12:26;5.19;108.43
34145;HTU21D;69555;53.014;8.886;2023-12-20T03:14:52;5.23;107.97
34145;HTU21D;69555;53.014;8.886;2023-12-20T03:17:19;5.27;107.92
34145;HTU21D;69555;53.014;8.886;2023-12-20T03:19:47;5.27;107.89
34145;HTU21D;69555;53.014;8.886;2023-12-20T03:22:14;5.26;107.57
34145;HTU21D;69555;53.014;8.886;2023-12-20T03:24:40;5.28;107.55
34145;HTU21D;69555;53.014;8.886;2023-12-20T03:27:07;5.31;107.55
34145;HTU21D;69555;53.014;8.886;2023-12-20T03:29:34;5.27;107.72
34145;HTU21D;69555;53.014;8.886;2023-12-20T03:32:00;5.23;108.43
34145;HTU21D;69555;53.014;8.886;2023-12-20T03:34:27;5.24;108.17
34145;HTU21D;69555;53.014;8.886;2023-12-20T03:36:55;5.27;108.18
34145;HTU21D;69555;53.014;8.886;2023-12-20T03:39:21;5.36;107.88
34145;HTU21D;69555;53.014;8.886;2023-12-20T03:41:48;5.38;107.84
34145;HTU21D;69555;53.014;8.886;2023-12-20T03:44:14;5.39;107.95
34145;HTU21D;69555;53.014;8.886;2023-12-20T03:46:41;5.45;107.69
34145;HTU21D;69555;53.014;8.886;2023-12-20T03:49:08;5.50;107.51
34145;HTU21D;69555;53.014;8.886;2023-12-20T03:51:34;5.50;107.10
34145;HTU21D;69555;53.014;8.886;2023-12-20T03:54:01;5.49;107.45
34145;HTU21D;69555;53.014;8.886;2023-12-20T03:56:28;5.42;108.23
34145;HTU21D;69555;53.014;8.886;2023-12-20T03:58:55;5.46;107.55
34145;HTU21D;69555;53.014;8.886;2023-12-20T04:01:21;5.45;107.61
34145;HTU21D;69555;53.014;8.886;2023-12-20T04:03:48;5.49;107.16
34145;HTU21D;69555;53.014;8.886;2023-12-20T04:06:20;5.47;107.27
34145;HTU21D;69555;53.014;8.886;2023-12-20T04:08:48;5.51;107.05
34145;HTU21D;69555;53.014;8.886;2023-12-20T04:11:15;5.52;107.25
34145;HTU21D;69555;53.014;8.886;2023-12-20T04:13:41;5.52;107.04
34145;HTU21D;69555;53.014;8.886;2023-12-20T04:16:08;5.56;106.77
34145;HTU21D;69555;53.014;8.886;2023-12-20T04:18:35;5.55;106.72
34145;HTU21D;69555;53.014;8.886;2023-12-20T04:21:03;5.55;106.50
34145;HTU21D;69555;53.014;8.886;2023-12-20T04:23:29;5.55;106.40
34145;HTU21D;69555;53.014;8.886;2023-12-20T04:25:56;5.55;106.58
34145;HTU21D;69555;53.014;8.886;2023-12-20T04:28:23;5.49;106.77
34145;HTU21D;69555;53.014;8.886;2023-12-20T04:30:50;5.53;106.13
34145;HTU21D;69555;53.014;8.886;2023-12-20T04:33:16;5.57;106.26
34145;HTU21D;69555;53.014;8.886;2023-12-20T04:35:43;5.56;106.40
34145;HTU21D;69555;53.014;8.886;2023-12-20T04:38:12;5.59;106.07
34145;HTU21D;69555;53.014;8.886;2023-12-20T04:40:38;5.56;106.30
34145;HTU21D;69555;53.014;8.886;2023-12-20T04:43:07;5.65;105.76
34145;HTU21D;69555;53.014;8.886;2023-12-20T04:45:35;5.66;106.02
34145;HTU21D;69555;53.014;8.886;2023-12-20T04:48:02;5.67;105.89
34145;HTU21D;69555;53.014;8.886;2023-12-20T04:50:29;5.68;106.23
34145;HTU21D;69555;53.014;8.886;2023-12-20T04:52:55;5.64;106.55
34145;HTU21D;69555;53.014;8.886;2023-12-20T04:55:22;5.62;106.22
34145;HTU21D;69555;53.014;8.886;2023-12-20T04:57:49;5.68;105.80
34145;HTU21D;69555;53.014;8.886;2023-12-20T05:00:15;5.71;105.49
34145;HTU21D;69555;53.014;8.886;2023-12-20T05:02:42;5.68;105.76
34145;HTU21D;69555;53.014;8.886;2023-12-20T05:05:09;5.76;105.43
34145;HTU21D;69555;53.014;8.886;2023-12-20T05:07:35;5.76;105.69
34145;HTU21D;69555;53.014;8.886;2023-12-20T05:10:03;5.74;105.50
34145;HTU21D;69555;53.014;8.886;2023-12-20T05:12:30;5.70;105.47
34145;HTU21D;69555;53.014;8.886;2023-12-20T05:14:58;5.67;105.24
34145;HTU21D;69555;53.014;8.886;2023-12-20T05:17:24;5.71;104.82
34145;HTU21D;69555;53.014;8.886;2023-12-20T05:19:51;5.68;104.92
34145;HTU21D;69555;53.014;8.886;2023-12-20T05:22:19;5.68;104.95
34145;HTU21D;69555;53.014;8.886;2023-12-20T05:24:46;5.77;104.50
34145;HTU21D;69555;53.014;8.886;2023-12-20T05:27:13;5.78;104.82
34145;HTU21D;69555;53.014;8.886;2023-12-20T05:29:39;5.80;104.95
34145;HTU21D;69555;53.014;8.886;2023-12-20T05:32:06;5.74;105.53
34145;HTU21D;69555;53.014;8.886;2023-12-20T05:34:32;5.72;105.47
34145;HTU21D;69555;53.014;8.886;2023-12-20T05:36:59;5.70;105.18
34145;HTU21D;69555;53.014;8.886;2023-12-20T05:39:25;5.70;105.47
34145;HTU21D;69555;53.014;8.886;2023-12-20T05:41:52;5.76;105.43
34145;HTU21D;69555;53.014;8.886;2023-12-20T05:44:19;5.76;104.81
34145;HTU21D;69555;53.014;8.886;2023-12-20T05:46:45;5.71;104.84
34145;HTU21D;69555;53.014;8.886;2023-12-20T05:49:13;5.61;105.00
34145;HTU21D;69555;53.014;8.886;2023-12-20T05:51:40;5.61;105.03
34145;HTU21D;69555;53.014;8.886;2023-12-20T05:54:08;5.56;105.41
34145;HTU21D;69555;53.014;8.886;2023-12-20T05:56:35;5.68;104.80
34145;HTU21D;69555;53.014;8.886;2023-12-20T05:59:02;5.78;104.07
34145;HTU21D;69555;53.014;8.886;2023-12-20T06:01:29;5.83;103.89
34145;HTU21D;69555;53.014;8.886;2023-12-20T06:03:56;5.78;104.56
34145;HTU21D;69555;53.014;8.886;2023-12-20T06:06:23;5.86;103.95
34145;HTU21D;69555;53.014;8.886;2023-12-20T06:08:50;5.92;103.85
34145;HTU21D;69555;53.014;8.886;2023-12-20T06:11:19;5.90;103.98
34145;HTU21D;69555;53.014;8.886;2023-12-20T06:13:46;5.90;103.85
34145;HTU21D;69555;53.014;8.886;2023-12-20T06:16:12;5.94;103.59
34145;HTU21D;69555;53.014;8.886;2023-12-20T06:18:42;5.95;103.38
34145;HTU21D;69555;53.014;8.886;2023-12-20T06:21:09;5.91;103.59
34145;HTU21D;69555;53.014;8.886;2023-12-20T06:23:39;6.01;103.51
34145;HTU21D;69555;53.014;8.886;2023-12-20T06:26:06;6.04;103.30
34145;HTU21D;69555;53.014;8.886;2023-12-20T06:28:32;6.06;102.92
34145;HTU21D;69555;53.014;8.886;2023-12-20T06:30:59;6.04;103.61
34145;HTU21D;69555;53.014;8.886;2023-12-20T06:33:27;6.08;103.21
34145;HTU21D;69555;53.014;8.886;2023-12-20T06:35:55;6.09;102.83
34145;HTU21D;69555;53.014;8.886;2023-12-20T06:38:24;6.07;102.81
34145;HTU21D;69555;53.014;8.886;2023-12-20T06:40:51;6.05;103.05
34145;HTU21D;69555;53.014;8.886;2023-12-20T06:43:18;5.95;103.72
34145;HTU21D;69555;53.014;8.886;2023-12-20T06:45:45;5.94;104.08
34145;HTU21D;69555;53.014;8.886;2023-12-20T06:48:11;5.95;103.43
34145;HTU21D;69555;53.014;8.886;2023-12-20T06:50:39;5.97;103.09
34145;HTU21D;69555;53.014;8.886;2023-12-20T06:53:06;6.02;102.76
34145;HTU21D;69555;53.014;8.886;2023-12-20T06:55:35;6.04;102.61
34145;HTU21D;69555;53.014;8.886;2023-12-20T06:58:02;6.15;102.51
34145;HTU21D;69555;53.014;8.886;2023-12-20T07:00:29;6.14;103.16
34145;HTU21D;69555;53.014;8.886;2023-12-20T07:02:55;6.16;103.30
34145;HTU21D;69555;53.014;8.886;2023-12-20T07:05:22;6.17;103.18
34145;HTU21D;69555;53.014;8.886;2023-12-20T07:07:49;6.13;103.73
34145;HTU21D;69555;53.014;8.886;2023-12-20T07:10:15;6.12;103.36
34145;HTU21D;69555;53.014;8.886;2023-12-20T07:12:42;6.04;103.77
34145;HTU21D;69555;53.014;8.886;2023-12-20T07:15:09;6.13;102.80
34145;HTU21D;69555;53.014;8.886;2023-12-20T07:17:37;6.14;103.16
34145;HTU21D;69555;53.014;8.886;2023-12-20T07:20:04;6.24;102.29
34145;HTU21D;69555;53.014;8.886;2023-12-20T07:22:36;6.24;102.45
34145;HTU21D;69555;53.014;8.886;2023-12-20T07:25:03;6.16;103.23
34145;HTU21D;69555;53.014;8.886;2023-12-20T07:27:30;6.25;102.47
34145;HTU21D;69555;53.014;8.886;2023-12-20T07:29:56;6.24;102.91
34145;HTU21D;69555;53.014;8.886;2023-12-20T07:32:23;6.22;103.28
34145;HTU21D;69555;53.014;8.886;2023-12-20T07:34:50;6.20;103.59
34145;HTU21D;69555;53.014;8.886;2023-12-20T07:37:17;6.36;102.20
34145;HTU21D;69555;53.014;8.886;2023-12-20T07:39:44;6.41;102.02
34145;HTU21D;69555;53.014;8.886;2023-12-20T07:42:10;6.39;102.28
34145;HTU21D;69555;53.014;8.886;2023-12-20T07:44:37;6.40;102.47
34145;HTU21D;69555;53.014;8.886;2023-12-20T07:47:04;6.37;103.12
34145;HTU21D;69555;53.014;8.886;2023-12-20T07:49:31;6.34;104.15
34145;HTU21D;69555;53.014;8.886;2023-12-20T07:51:58;6.25;104.51
34145;HTU21D;69555;53.014;8.886;2023-12-20T07:54:23;6.31;103.68
34145;HTU21D;69555;53.014;8.886;2023-12-20T07:56:50;6.29;103.92
34145;HTU21D;69555;53.014;8.886;2023-12-20T07:59:16;6.33;104.04
34145;HTU21D;69555;53.014;8.886;2023-12-20T08:01:43;6.39;103.49
34145;HTU21D;69555;53.014;8.886;2023-12-20T08:04:08;6.37;103.96
34145;HTU21D;69555;53.014;8.886;2023-12-20T08:06:34;6.43;103.52
34145;HTU21D;69555;53.014;8.886;2023-12-20T08:08:59;6.46;103.18
34145;HTU21D;69555;53.014;8.886;2023-12-20T08:11:25;6.44;103.52
34145;HTU21D;69555;53.014;8.886;2023-12-20T08:13:50;6.46;103.86
34145;HTU21D;69555;53.014;8.886;2023-12-20T08:16:17;6.57;102.05
34145;HTU21D;69555;53.014;8.886;2023-12-20T08:18:44;6.64;102.43
34145;HTU21D;69555;53.014;8.886;2023-12-20T08:21:10;6.68;101.83
34145;HTU21D;69555;53.014;8.886;2023-12-20T08:23:38;6.57;102.89
34145;HTU21D;69555;53.014;8.886;2023-12-20T08:26:09;6.53;103.30
34145;HTU21D;69555;53.014;8.886;2023-12-20T08:28:36;6.51;103.74
34145;HTU21D;69555;53.014;8.886;2023-12-20T08:31:03;6.52;103.83
34145;HTU21D;69555;53.014;8.886;2023-12-20T08:33:29;6.50;104.51
34145;HTU21D;69555;53.014;8.886;2023-12-20T08:35:54;6.55;104.30
34145;HTU21D;69555;53.014;8.886;2023-12-20T08:38:19;6.63;103.35
34145;HTU21D;69555;53.014;8.886;2023-12-20T08:40:47;6.73;102.71
34145;HTU21D;69555;53.014;8.886;2023-12-20T08:43:14;6.75;102.89
34145;HTU21D;69555;53.014;8.886;2023-12-20T08:45:41;6.72;103.73
34145;HTU21D;69555;53.014;8.886;2023-12-20T08:48:08;6.76;103.44
34145;HTU21D;69555;53.014;8.886;2023-12-20T08:50:35;6.79;102.13
34145;HTU21D;69555;53.014;8.886;2023-12-20T08:53:02;6.79;102.31
34145;HTU21D;69555;53.014;8.886;2023-12-20T08:55:28;6.72;103.29
34145;HTU21D;69555;53.014;8.886;2023-12-20T08:57:58;6.74;102.92
34145;HTU21D;69555;53.014;8.886;2023-12-20T09:00:25;6.78;101.99
34145;HTU21D;69555;53.014;8.886;2023-12-20T09:02:54;6.78;102.56
34145;HTU21D;69555;53.014;8.886;2023-12-20T09:05:21;6.87;101.96
34145;HTU21D;69555;53.014;8.886;2023-12-20T09:07:48;6.85;102.75
34145;HTU21D;69555;53.014;8.886;2023-12-20T09:10:15;6.71;103.55
34145;HTU21D;69555;53.014;8.886;2023-12-20T09:12:41;6.67;104.21
34145;HTU21D;69555;53.014;8.886;2023-12-20T09:15:08;6.66;105.18
34145;HTU21D;69555;53.014;8.886;2023-12-20T09:17:35;6.70;105.30
34145;HTU21D;69555;53.014;8.886;2023-12-20T09:20:02;6.68;105.70
34145;HTU21D;69555;53.014;8.886;2023-12-20T09:22:31;6.74;104.81
34145;HTU21D;69555;53.014;8.886;2023-12-20T09:24:58;6.74;104.00
34145;HTU21D;69555;53.014;8.886;2023-12-20T09:27:24;6.73;105.13
34145;HTU21D;69555;53.014;8.886;2023-12-20T09:29:51;6.79;105.08
34145;HTU21D;69555;53.014;8.886;2023-12-20T09:32:18;6.73;105.70
34145;HTU21D;69555;53.014;8.886;2023-12-20T09:34:47;6.79;104.73
34145;HTU21D;69555;53.014;8.886;2023-12-20T09:37:14;6.74;104.97
34145;HTU21D;69555;53.014;8.886;2023-12-20T09:39:39;6.80;104.60
34145;HTU21D;69555;53.014;8.886;2023-12-20T09:42:11;6.76;105.66
34145;HTU21D;69555;53.014;8.886;2023-12-20T09:44:39;6.81;103.89
34145;HTU21D;69555;53.014;8.886;2023-12-20T09:47:08;6.85;103.72
34145;HTU21D;69555;53.014;8.886;2023-12-20T09:49:36;6.86;103.53
34145;HTU21D;69555;53.014;8.886;2023-12-20T09:52:04;6.81;104.53
34145;HTU21D;69555;53.014;8.886;2023-12-20T09:54:34;6.74;105.31
34145;HTU21D;69555;53.014;8.886;2023-12-20T09:57:01;6.69;105.97
34145;HTU21D;69555;53.014;8.886;2023-12-20T09:59:28;6.56;107.66
34145;HTU21D;69555;53.014;8.886;2023-12-20T10:01:55;6.50;106.27
34145;HTU21D;69555;53.014;8.886;2023-12-20T10:04:23;6.21;104.69
34145;HTU21D;69555;53.014;8.886;2023-12-20T10:06:52;6.00;101.03
34145;HTU21D;69555;53.014;8.886;2023-12-20T10:09:18;5.65;102.43
34145;HTU21D;69555;53.014;8.886;2023-12-20T10:11:45;5.45;103.42
34145;HTU21D;69555;53.014;8.886;2023-12-20T10:14:13;5.43;103.89
34145;HTU21D;69555;53.014;8.886;2023-12-20T10:16:40;5.48;105.16
34145;HTU21D;69555;53.014;8.886;2023-12-20T10:19:07;5.33;105.76
34145;HTU21D;69555;53.014;8.886;2023-12-20T10:21:33;5.33;106.13
34145;HTU21D;69555;53.014;8.886;2023-12-20T10:24:00;5.42;105.46
34145;HTU21D;69555;53.014;8.886;2023-12-20T10:26:27;5.46;105.32
34145;HTU21D;69555;53.014;8.886;2023-12-20T10:28:56;5.32;105.78
34145;HTU21D;69555;53.014;8.886;2023-12-20T10:31:32;5.21;106.08
34145;HTU21D;69555;53.014;8.886;2023-12-20T10:34:02;5.15;107.08
34145;HTU21D;69555;53.014;8.886;2023-12-20T10:36:31;5.20;106.29
34145;HTU21D;69555;53.014;8.886;2023-12-20T10:38:59;5.10;106.08
34145;HTU21D;69555;53.014;8.886;2023-12-20T10:41:29;5.11;106.65
34145;HTU21D;69555;53.014;8.886;2023-12-20T10:43:59;5.15;105.82
34145;HTU21D;69555;53.014;8.886;2023-12-20T10:46:27;5.21;106.18
34145;HTU21D;69555;53.014;8.886;2023-12-20T10:48:59;5.16;106.70
34145;HTU21D;69555;53.014;8.886;2023-12-20T10:51:28;5.38;106.13
34145;HTU21D;69555;53.014;8.886;2023-12-20T10:53:56;5.51;105.38
34145;HTU21D;69555;53.014;8.886;2023-12-20T10:56:23;5.50;104.80
34145;HTU21D;69555;53.014;8.886;2023-12-20T10:58:51;5.51;104.90
34145;HTU21D;69555;53.014;8.886;2023-12-20T11:01:18;5.60;104.40
34145;HTU21D;69555;53.014;8.886;2023-12-20T11:03:53;5.65;104.50
34145;HTU21D;69555;53.014;8.886;2023-12-20T11:06:58;5.64;103.63
34145;HTU21D;69555;53.014;8.886;2023-12-20T11:09:41;5.60;103.54
34145;HTU21D;69555;53.014;8.886;2023-12-20T11:12:32;5.48;103.79
34145;HTU21D;69555;53.014;8.886;2023-12-20T11:14:59;5.71;103.79
34145;HTU21D;69555;53.014;8.886;2023-12-20T11:17:31;6.00;103.09
34145;HTU21D;69555;53.014;8.886;2023-12-20T11:22:34;6.30;100.80
34145;HTU21D;69555;53.014;8.886;2023-12-20T11:25:08;6.19;100.25
34145;HTU21D;69555;53.014;8.886;2023-12-20T11:27:35;6.44;101.83
34145;HTU21D;69555;53.014;8.886;2023-12-20T11:30:03;6.68;100.50
34145;HTU21D;69555;53.014;8.886;2023-12-20T11:32:36;6.69;99.00
34145;HTU21D;69555;53.014;8.886;2023-12-20T11:37:38;6.83;97.84
34145;HTU21D;69555;53.014;8.886;2023-12-20T11:40:16;6.78;98.35
34145;HTU21D;69555;53.014;8.886;2023-12-20T11:42:49;6.88;97.44
34145;HTU21D;69555;53.014;8.886;2023-12-20T11:45:21;6.95;95.89
34145;HTU21D;69555;53.014;8.886;2023-12-20T11:47:50;7.05;96.17
34145;HTU21D;69555;53.014;8.886;2023-12-20T11:50:18;7.02;95.45
34145;HTU21D;69555;53.014;8.886;2023-12-20T11:52:45;7.07;95.63
34145;HTU21D;69555;53.014;8.886;2023-12-20T11:55:12;7.16;95.16
34145;HTU21D;69555;53.014;8.886;2023-12-20T11:57:39;7.18;95.30
34145;HTU21D;69555;53.014;8.886;2023-12-20T12:00:06;7.23;94.44
34145;HTU21D;69555;53.014;8.886;2023-12-20T12:02:33;7.31;95.30
34145;HTU21D;69555;53.014;8.886;2023-12-20T12:05:00;7.29;93.81
34145;HTU21D;69555;53.014;8.886;2023-12-20T12:07:26;7.15;95.60
34145;HTU21D;69555;53.014;8.886;2023-12-20T12:09:53;7.09;95.42
34145;HTU21D;69555;53.014;8.886;2023-12-20T12:12:20;7.22;96.06
34145;HTU21D;69555;53.014;8.886;2023-12-20T12:14:47;7.47;94.75
34145;HTU21D;69555;53.014;8.886;2023-12-20T12:17:14;7.18;94.50
34145;HTU21D;69555;53.014;8.886;2023-12-20T12:19:42;7.18;95.97
34145;HTU21D;69555;53.014;8.886;2023-12-20T12:22:10;7.16;96.41
34145;HTU21D;69555;53.014;8.886;2023-12-20T12:24:40;7.13;95.76
34145;HTU21D;69555;53.014;8.886;2023-12-20T12:27:07;7.22;95.81
34145;HTU21D;69555;53.014;8.886;2023-12-20T12:29:35;7.38;94.76
34145;HTU21D;69555;53.014;8.886;2023-12-20T12:32:06;7.30;93.56
34145;HTU21D;69555;53.014;8.886;2023-12-20T12:34:34;7.30;95.00
34145;HTU21D;69555;53.014;8.886;2023-12-20T12:37:00;7.35;93.98
34145;HTU21D;69555;53.014;8.886;2023-12-20T12:39:27;7.23;95.07
34145;HTU21D;69555;53.014;8.886;2023-12-20T12:41:54;7.23;94.27
34145;HTU21D;69555;53.014;8.886;2023-12-20T12:44:20;7.00;94.64
34145;HTU21D;69555;53.014;8.886;2023-12-20T12:46:50;6.88;97.48
34145;HTU21D;69555;53.014;8.886;2023-12-20T12:49:17;6.84;96.52
34145;HTU21D;69555;53.014;8.886;2023-12-20T12:51:44;6.86;96.40
34145;HTU21D;69555;53.014;8.886;2023-12-20T12:54:11;6.88;96.59
34145;HTU21D;69555;53.014;8.886;2023-12-20T12:56:40;6.86;96.97
34145;HTU21D;69555;53.014;8.886;2023-12-20T12:59:07;6.86;96.50
34145;HTU21D;69555;53.014;8.886;2023-12-20T13:01:35;6.91;95.04
34145;HTU21D;69555;53.014;8.886;2023-12-20T13:04:01;6.94;95.72
34145;HTU21D;69555;53.014;8.886;2023-12-20T13:06:30;6.91;95.07
34145;HTU21D;69555;53.014;8.886;2023-12-20T13:08:57;6.94;97.62
34145;HTU21D;69555;53.014;8.886;2023-12-20T13:11:23;6.80;98.64
34145;HTU21D;69555;53.014;8.886;2023-12-20T13:13:51;6.75;97.38
34145;HTU21D;69555;53.014;8.886;2023-12-20T13:16:18;6.69;97.42
34145;HTU21D;69555;53.014;8.886;2023-12-20T13:18:44;6.63;99.12
34145;HTU21D;69555;53.014;8.886;2023-12-20T13:21:11;6.57;98.39
34145;HTU21D;69555;53.014;8.886;2023-12-20T13:23:38;6.52;98.52
34145;HTU21D;69555;53.014;8.886;2023-12-20T13:26:04;6.37;99.21
34145;HTU21D;69555;53.014;8.886;2023-12-20T13:28:32;6.40;99.01
34145;HTU21D;69555;53.014;8.886;2023-12-20T13:30:59;6.36;99.58
34145;HTU21D;69555;53.014;8.886;2023-12-20T13:33:26;6.35;99.93
34145;HTU21D;69555;53.014;8.886;2023-12-20T13:35:52;6.51;100.01
34145;HTU21D;69555;53.014;8.886;2023-12-20T13:38:19;6.59;100.32
34145;HTU21D;69555;53.014;8.886;2023-12-20T13:40:46;6.64;99.49
34145;HTU21D;69555;53.014;8.886;2023-12-20T13:43:12;6.73;100.03
34145;HTU21D;69555;53.014;8.886;2023-12-20T13:45:39;6.65;100.36
34145;HTU21D;69555;53.014;8.886;2023-12-20T13:48:05;6.69;99.73
34145;HTU21D;69555;53.014;8.886;2023-12-20T13:50:32;6.72;98.60
34145;HTU21D;69555;53.014;8.886;2023-12-20T13:52:59;6.64;98.12
34145;HTU21D;69555;53.014;8.886;2023-12-20T13:55:27;6.54;97.74
34145;HTU21D;69555;53.014;8.886;2023-12-20T13:57:54;6.35;98.81
34145;HTU21D;69555;53.014;8.886;2023-12-20T14:00:21;6.39;97.72
34145;HTU21D;69555;53.014;8.886;2023-12-20T14:02:48;6.38;97.30
34145;HTU21D;69555;53.014;8.886;2023-12-20T14:05:16;6.40;96.92
34145;HTU21D;69555;53.014;8.886;2023-12-20T14:07:44;6.40;96.55
34145;HTU21D;69555;53.014;8.886;2023-12-20T14:10:14;6.34;97.85
34145;HTU21D;69555;53.014;8.886;2023-12-20T14:12:40;6.42;96.87
34145;HTU21D;69555;53.014;8.886;2023-12-20T14:15:07;6.42;97.09
34145;HTU21D;69555;53.014;8.886;2023-12-20T14:17:42;6.34;97.32
34145;HTU21D;69555;53.014;8.886;2023-12-20T14:20:10;6.28;98.30
34145;HTU21D;69555;53.014;8.886;2023-12-20T14:22:39;6.30;97.18
34145;HTU21D;69555;53.014;8.886;2023-12-20T14:25:13;6.37;97.26
34145;HTU21D;69555;53.014;8.886;2023-12-20T14:27:41;6.36;96.78
34145;HTU21D;69555;53.014;8.886;2023-12-20T14:30:10;6.29;97.40
34145;HTU21D;69555;53.014;8.886;2023-12-20T14:32:36;6.28;96.88
34145;HTU21D;69555;53.014;8.886;2023-12-20T14:35:07;6.29;97.33
34145;HTU21D;69555;53.014;8.886;2023-12-20T14:37:35;6.24;97.14
34145;HTU21D;69555;53.014;8.886;2023-12-20T14:40:09;6.17;97.81
34145;HTU21D;69555;53.014;8.886;2023-12-20T14:42:44;6.19;97.56
34145;HTU21D;69555;53.014;8.886;2023-12-20T14:45:11;6.23;97.20
34145;HTU21D;69555;53.014;8.886;2023-12-20T14:47:39;6.23;97.10
34145;HTU21D;69555;53.014;8.886;2023-12-20T14:50:07;6.09;98.35
34145;HTU21D;69555;53.014;8.886;2023-12-20T14:52:34;6.11;98.65
34145;HTU21D;69555;53.014;8.886;2023-12-20T14:55:01;6.13;98.40
34145;HTU21D;69555;53.014;8.886;2023-12-20T14:57:29;6.20;97.78
34145;HTU21D;69555;53.014;8.886;2023-12-20T14:59:55;6.20;97.81
34145;HTU21D;69555;53.014;8.886;2023-12-20T15:02:21;6.19;97.52
34145;HTU21D;69555;53.014;8.886;2023-12-20T15:04:46;6.19;98.23
34145;HTU21D;69555;53.014;8.886;2023-12-20T15:07:12;6.22;97.34
34145;HTU21D;69555;53.014;8.886;2023-12-20T15:09:38;6.26;97.16
34145;HTU21D;69555;53.014;8.886;2023-12-20T15:12:12;6.19;98.35
34145;HTU21D;69555;53.014;8.886;2023-12-20T15:14:38;6.16;98.33
34145;HTU21D;69555;53.014;8.886;2023-12-20T15:17:04;6.20;98.26
34145;HTU21D;69555;53.014;8.886;2023-12-20T15:19:30;6.23;98.58
34145;HTU21D;69555;53.014;8.886;2023-12-20T15:21:56;6.30;97.91
34145;HTU21D;69555;53.014;8.886;2023-12-20T15:24:21;6.27;98.13
34145;HTU21D;69555;53.014;8.886;2023-12-20T15:26:54;6.30;97.71